createdAt,value
2023-01-27T00:00:53.997Z,58.30
2023-01-27T00:03:21.404Z,58.30
2023-01-27T00:05:48.696Z,58.40
2023-01-27T00:08:16.417Z,58.40
2023-01-27T00:10:43.612Z,58.40
2023-01-27T00:13:28.752Z,58.40
2023-01-27T00:15:56.381Z,58.40
2023-01-27T00:18:26.531Z,58.40
2023-01-27T00:21:11.847Z,58.40
2023-01-27T00:23:57.296Z,58.30
2023-01-27T00:26:24.106Z,58.40
2023-01-27T00:28:50.890Z,58.40
2023-01-27T00:31:36.600Z,58.50
2023-01-27T00:34:10.996Z,58.50
2023-01-27T00:36:40.066Z,58.50
2023-01-27T00:39:08.326Z,58.50
2023-01-27T00:41:35.364Z,58.50
2023-01-27T00:44:02.790Z,59.00
2023-01-27T00:46:29.778Z,58.50
2023-01-27T00:48:56.862Z,58.50
2023-01-27T00:51:24.029Z,58.40
2023-01-27T00:53:51.060Z,58.50
2023-01-27T00:56:17.933Z,58.40
2023-01-27T00:58:46.919Z,58.50
2023-01-27T01:01:16.469Z,58.50
2023-01-27T01:03:44.576Z,58.50
2023-01-27T01:06:16.346Z,58.60
2023-01-27T01:08:44.506Z,58.50
2023-01-27T01:11:13.498Z,59.10
2023-01-27T01:13:41.636Z,58.50
2023-01-27T01:16:17.016Z,58.60
2023-01-27T01:18:44.177Z,58.60
2023-01-27T01:21:12.469Z,58.60
2023-01-27T01:23:43.835Z,58.60
2023-01-27T01:26:12.093Z,58.60
2023-01-27T01:28:39.695Z,58.50
2023-01-27T01:31:12.886Z,58.60
2023-01-27T01:33:40.246Z,58.50
2023-01-27T01:36:12.598Z,58.60
2023-01-27T01:38:39.405Z,58.60
2023-01-27T01:41:08.080Z,58.70
2023-01-27T01:43:35.185Z,58.70
2023-01-27T01:46:02.869Z,58.70
2023-01-27T01:49:03.051Z,58.70
2023-01-27T01:51:41.938Z,58.80
2023-01-27T01:54:15.166Z,58.70
2023-01-27T01:57:16.738Z,58.70
2023-01-27T01:59:53.726Z,58.70
2023-01-27T02:02:26.322Z,58.70
2023-01-27T02:04:58.317Z,58.80
2023-01-27T02:07:30.715Z,58.70
2023-01-27T02:10:00.248Z,58.70
2023-01-27T02:12:27.353Z,58.60
2023-01-27T02:14:54.608Z,58.60
2023-01-27T02:17:24.194Z,58.70
2023-01-27T02:20:23.377Z,58.70
2023-01-27T02:23:01.370Z,58.80
2023-01-27T02:25:37.249Z,58.70
2023-01-27T02:28:06.615Z,58.70
2023-01-27T02:30:34.175Z,58.80
2023-01-27T02:33:01.572Z,58.80
2023-01-27T02:35:39.766Z,58.70
2023-01-27T02:38:08.084Z,58.80
2023-01-27T02:40:37.693Z,58.80
2023-01-27T02:43:05.775Z,58.80
2023-01-27T02:45:32.585Z,58.80
2023-01-27T02:48:00.186Z,58.80
2023-01-27T02:50:29.177Z,58.70
2023-01-27T02:52:56.469Z,58.70
2023-01-27T02:55:25.336Z,58.70
2023-01-27T02:57:52.108Z,58.80
2023-01-27T03:00:18.941Z,58.80
2023-01-27T03:02:45.705Z,58.80
2023-01-27T03:05:14.137Z,58.80
2023-01-27T03:07:42.062Z,58.80
2023-01-27T03:10:09.819Z,58.80
2023-01-27T03:12:36.911Z,58.70
2023-01-27T03:15:22.380Z,58.70
2023-01-27T03:18:07.563Z,58.60
2023-01-27T03:20:34.353Z,58.70
2023-01-27T03:23:01.158Z,58.70
2023-01-27T03:25:31.316Z,58.60
2023-01-27T03:27:58.117Z,58.60
2023-01-27T03:30:24.897Z,58.60
2023-01-27T03:32:52.181Z,58.50
2023-01-27T03:35:19.529Z,58.60
2023-01-27T03:38:04.661Z,58.70
2023-01-27T03:40:50.025Z,58.70
2023-01-27T03:43:35.716Z,58.60
2023-01-27T03:46:37.604Z,58.70
2023-01-27T03:49:04.396Z,58.60
2023-01-27T03:51:31.165Z,58.60
2023-01-27T03:54:00.978Z,58.70
2023-01-27T03:56:27.837Z,58.70
2023-01-27T03:58:54.649Z,58.70
2023-01-27T04:01:25.456Z,58.60
2023-01-27T04:04:11.361Z,58.60
2023-01-27T04:06:58.254Z,58.60
2023-01-27T04:09:28.689Z,58.70
2023-01-27T04:12:00.835Z,58.70
2023-01-27T04:14:27.654Z,58.70
2023-01-27T04:17:00.284Z,58.70
2023-01-27T04:19:27.508Z,58.60
2023-01-27T04:21:55.756Z,58.60
2023-01-27T04:24:24.285Z,58.70
2023-01-27T04:27:00.628Z,58.70
2023-01-27T04:29:37.704Z,58.70
2023-01-27T04:32:09.529Z,58.80
2023-01-27T04:34:36.746Z,58.60
2023-01-27T04:37:05.636Z,58.70
2023-01-27T04:39:32.773Z,58.60
2023-01-27T04:41:59.796Z,58.60
2023-01-27T04:44:26.879Z,58.60
2023-01-27T04:46:55.208Z,58.50
2023-01-27T04:49:22.478Z,58.60
2023-01-27T04:51:49.426Z,58.50
2023-01-27T04:54:16.336Z,58.40
2023-01-27T04:57:01.287Z,58.40
2023-01-27T04:59:28.195Z,58.40
2023-01-27T05:01:59.548Z,58.40
2023-01-27T05:04:27.059Z,58.40
2023-01-27T05:06:54.485Z,58.40
2023-01-27T05:09:21.420Z,58.50
2023-01-27T05:11:48.331Z,58.40
2023-01-27T05:14:15.617Z,58.40
2023-01-27T05:16:42.422Z,58.40
2023-01-27T05:19:12.033Z,58.50
2023-01-27T05:21:38.944Z,58.40
2023-01-27T05:24:05.906Z,58.40
2023-01-27T05:26:35.195Z,58.40
2023-01-27T05:29:01.980Z,58.40
2023-01-27T05:31:31.848Z,58.40
2023-01-27T05:34:00.970Z,58.30
2023-01-27T05:36:28.743Z,58.30
2023-01-27T05:38:58.062Z,58.00
2023-01-27T05:41:31.078Z,58.00
2023-01-27T05:43:57.932Z,58.20
2023-01-27T05:46:29.956Z,58.30
2023-01-27T05:49:01.747Z,58.50
2023-01-27T05:51:34.433Z,57.90
2023-01-27T05:54:04.199Z,58.00
2023-01-27T05:56:31.527Z,58.10
2023-01-27T05:58:59.113Z,58.00
2023-01-27T06:01:32.614Z,58.00
2023-01-27T06:04:00.341Z,58.10
2023-01-27T06:06:30.901Z,58.10
2023-01-27T06:08:58.576Z,58.00
2023-01-27T06:11:26.178Z,58.00
2023-01-27T06:13:54.549Z,58.10
2023-01-27T06:16:22.884Z,58.20
2023-01-27T06:18:50.372Z,58.20
2023-01-27T06:21:18.254Z,58.30
2023-01-27T06:23:45.201Z,58.30
2023-01-27T06:26:18.335Z,58.30
2023-01-27T06:28:45.704Z,58.40
2023-01-27T06:31:17.851Z,58.30
2023-01-27T06:33:47.794Z,58.20
2023-01-27T06:36:17.882Z,58.20
2023-01-27T06:38:45.710Z,58.40
2023-01-27T06:41:13.276Z,58.20
2023-01-27T06:43:40.064Z,58.30
2023-01-27T06:46:07.485Z,58.30
2023-01-27T06:48:35.195Z,58.40
2023-01-27T06:51:02.039Z,58.20
2023-01-27T06:53:29.448Z,58.20
2023-01-27T06:56:01.357Z,58.10
2023-01-27T06:58:29.342Z,58.40
2023-01-27T07:00:57.560Z,58.20
2023-01-27T07:03:24.839Z,58.40
2023-01-27T07:05:55.195Z,58.30
2023-01-27T07:08:22.547Z,58.30
2023-01-27T07:10:49.610Z,58.50
2023-01-27T07:13:17.036Z,58.20
2023-01-27T07:15:43.870Z,58.30
2023-01-27T07:18:12.262Z,58.30
2023-01-27T07:20:39.604Z,58.00
2023-01-27T07:23:07.079Z,58.10
2023-01-27T07:25:35.256Z,58.00
2023-01-27T07:28:05.030Z,57.80
2023-01-27T07:30:33.948Z,57.70
2023-01-27T07:33:12.271Z,57.80
2023-01-27T07:35:41.174Z,57.70
2023-01-27T07:38:08.621Z,57.50
2023-01-27T07:40:35.962Z,57.50
2023-01-27T07:43:03.094Z,57.50
2023-01-27T07:45:30.261Z,57.50
2023-01-27T07:48:04.946Z,57.50
2023-01-27T07:50:31.813Z,57.40
2023-01-27T07:53:04.132Z,57.40
2023-01-27T07:55:34.216Z,57.30
2023-01-27T07:58:01.195Z,57.30
2023-01-27T08:00:29.051Z,57.30
2023-01-27T08:02:57.903Z,57.10
2023-01-27T08:05:25.632Z,57.20
2023-01-27T08:07:54.125Z,57.40
2023-01-27T08:10:21.201Z,57.50
2023-01-27T08:12:50.995Z,57.50
2023-01-27T08:15:19.222Z,58.00
2023-01-27T08:17:54.071Z,57.50
2023-01-27T08:20:20.885Z,57.50
2023-01-27T08:22:47.687Z,57.30
2023-01-27T08:25:14.764Z,57.00
2023-01-27T08:27:41.679Z,56.80
2023-01-27T08:30:09.720Z,56.70
2023-01-27T08:32:36.484Z,56.50
2023-01-27T08:35:03.916Z,56.50
2023-01-27T08:37:30.734Z,56.40
2023-01-27T08:39:57.504Z,56.10
2023-01-27T08:42:24.832Z,56.00
2023-01-27T08:44:55.960Z,55.90
2023-01-27T08:47:22.763Z,56.10
2023-01-27T08:49:50.155Z,56.10
2023-01-27T08:52:17.479Z,56.30
2023-01-27T08:54:45.160Z,56.30
2023-01-27T08:57:11.928Z,56.40
2023-01-27T08:59:38.741Z,56.50
2023-01-27T09:02:05.511Z,56.50
2023-01-27T09:04:37.982Z,56.60
2023-01-27T09:07:04.840Z,56.70
2023-01-27T09:09:32.158Z,56.70
2023-01-27T09:11:58.881Z,56.70
2023-01-27T09:14:25.652Z,56.80
2023-01-27T09:16:52.460Z,56.90
2023-01-27T09:19:19.198Z,56.90
2023-01-27T09:21:48.094Z,56.90
2023-01-27T09:24:17.835Z,56.90
2023-01-27T09:26:45.273Z,57.00
2023-01-27T09:29:12.096Z,57.60
2023-01-27T09:31:39.060Z,56.90
2023-01-27T09:34:06.291Z,57.00
2023-01-27T09:36:40.519Z,57.10
2023-01-27T09:39:11.878Z,57.10
2023-01-27T09:42:00.291Z,57.10
2023-01-27T09:44:53.779Z,57.20
2023-01-27T09:48:01.222Z,57.20
2023-01-27T09:50:44.779Z,57.20
2023-01-27T09:53:45.404Z,57.20
2023-01-27T09:56:23.628Z,57.30
2023-01-27T09:59:13.939Z,57.20
2023-01-27T10:02:17.070Z,57.40
2023-01-27T10:05:12.579Z,57.30
2023-01-27T10:08:25.343Z,57.40
2023-01-27T10:11:12.132Z,57.30
2023-01-27T10:13:59.563Z,57.30
2023-01-27T10:16:53.049Z,57.40
2023-01-27T10:19:35.164Z,57.30
2023-01-27T10:22:16.099Z,57.40
2023-01-27T10:24:53.854Z,57.30
2023-01-27T10:27:27.004Z,57.40
2023-01-27T10:30:24.735Z,57.40
2023-01-27T10:32:58.670Z,57.30
2023-01-27T10:35:43.718Z,57.40
2023-01-27T10:38:39.834Z,57.30
2023-01-27T10:41:45.380Z,57.40
2023-01-27T10:44:46.046Z,57.40
2023-01-27T10:47:34.314Z,57.50
2023-01-27T10:50:12.697Z,57.30
2023-01-27T10:52:48.445Z,57.40
2023-01-27T10:55:21.967Z,57.40
2023-01-27T10:58:04.951Z,57.40
2023-01-27T11:01:14.025Z,57.50
2023-01-27T11:03:50.366Z,57.50
2023-01-27T11:06:24.607Z,57.50
2023-01-27T11:08:57.394Z,57.50
2023-01-27T11:11:45.169Z,57.40
2023-01-27T11:14:27.542Z,57.40
2023-01-27T11:17:14.546Z,57.30
2023-01-27T11:19:49.822Z,57.40
2023-01-27T11:22:34.014Z,57.50
2023-01-27T11:25:27.417Z,57.40
2023-01-27T11:28:03.638Z,57.40
2023-01-27T11:30:55.196Z,57.40
2023-01-27T11:33:27.426Z,57.40
2023-01-27T11:35:56.793Z,57.30
2023-01-27T11:38:26.545Z,57.40
2023-01-27T11:40:56.075Z,57.40
2023-01-27T11:43:30.166Z,57.40
2023-01-27T11:46:04.071Z,57.40
2023-01-27T11:48:41.791Z,57.40
2023-01-27T11:51:22.644Z,57.40
2023-01-27T11:54:12.585Z,57.50
2023-01-27T11:56:41.189Z,57.50
2023-01-27T11:59:40.433Z,57.40
2023-01-27T12:02:07.676Z,57.50
2023-01-27T12:05:18.362Z,57.50
2023-01-27T12:08:00.296Z,57.40
2023-01-27T12:10:28.139Z,57.40
2023-01-27T12:12:58.104Z,57.40
2023-01-27T12:15:29.508Z,57.40
2023-01-27T12:18:03.267Z,57.50
2023-01-27T12:20:40.606Z,57.50
2023-01-27T12:23:28.027Z,57.80
2023-01-27T12:26:01.401Z,58.10
2023-01-27T12:28:46.653Z,58.80
2023-01-27T12:31:21.582Z,59.60
2023-01-27T12:34:00.254Z,60.50
2023-01-27T12:36:29.977Z,61.80
2023-01-27T12:39:01.132Z,62.60
2023-01-27T12:41:38.361Z,63.30
2023-01-27T12:44:13.663Z,63.70
2023-01-27T12:46:56.367Z,64.00
2023-01-27T12:49:25.119Z,64.40
2023-01-27T12:51:55.431Z,64.60
2023-01-27T12:54:23.469Z,64.80
2023-01-27T12:56:52.923Z,64.90
2023-01-27T12:59:26.554Z,65.10
2023-01-27T13:02:12.297Z,64.90
2023-01-27T13:04:39.134Z,65.20
2023-01-27T13:07:13.036Z,65.40
2023-01-27T13:09:49.023Z,65.40
2023-01-27T13:12:17.860Z,65.50
2023-01-27T13:14:44.853Z,65.60
2023-01-27T13:17:35.924Z,65.40
2023-01-27T13:20:29.996Z,65.10
2023-01-27T13:23:07.999Z,65.00
2023-01-27T13:25:53.794Z,65.00
2023-01-27T13:28:46.104Z,65.00
2023-01-27T13:31:38.404Z,64.80
2023-01-27T13:34:30.991Z,64.80
2023-01-27T13:37:16.508Z,64.50
2023-01-27T13:39:48.104Z,64.50
2023-01-27T13:42:47.437Z,64.50
2023-01-27T13:45:23.331Z,64.30
2023-01-27T13:48:02.235Z,64.20
2023-01-27T13:50:37.768Z,64.20
2023-01-27T13:53:06.518Z,63.90
2023-01-27T13:56:06.895Z,64.30
2023-01-27T13:58:52.342Z,63.60
2023-01-27T14:01:33.145Z,63.60
2023-01-27T14:04:30.178Z,63.50
2023-01-27T14:07:10.221Z,63.50
2023-01-27T14:10:01.828Z,63.40
2023-01-27T14:13:02.895Z,63.40
2023-01-27T14:15:40.851Z,63.20
2023-01-27T14:18:16.373Z,63.60
2023-01-27T14:20:58.793Z,63.00
2023-01-27T14:24:00.876Z,62.90
2023-01-27T14:27:00.984Z,62.90
2023-01-27T14:29:30.387Z,62.90
2023-01-27T14:32:26.764Z,62.80
2023-01-27T14:35:19.107Z,62.80
2023-01-27T14:38:03.826Z,62.60
2023-01-27T14:40:51.469Z,62.10
2023-01-27T14:43:18.282Z,62.00
2023-01-27T14:46:15.118Z,62.50
2023-01-27T14:49:27.534Z,61.80
2023-01-27T14:52:08.644Z,61.90
2023-01-27T14:54:57.702Z,61.90
2023-01-27T14:57:46.405Z,61.80
2023-01-27T15:00:51.493Z,61.70
2023-01-27T15:03:47.966Z,61.80
2023-01-27T15:06:30.369Z,61.80
2023-01-27T15:09:27.427Z,61.80
2023-01-27T15:12:11.917Z,61.80
2023-01-27T15:15:10.482Z,61.70
2023-01-27T15:17:55.752Z,61.70
2023-01-27T15:20:49.882Z,61.60
2023-01-27T15:23:27.148Z,61.50
2023-01-27T15:26:00.292Z,61.50
2023-01-27T15:28:33.125Z,61.50
2023-01-27T15:31:21.330Z,61.50
2023-01-27T15:33:54.790Z,61.40
2023-01-27T15:36:27.369Z,61.30
2023-01-27T15:39:09.973Z,61.40
2023-01-27T15:41:58.198Z,61.20
2023-01-27T15:44:25.557Z,61.20
2023-01-27T15:46:56.117Z,61.80
2023-01-27T15:49:26.641Z,61.10
2023-01-27T15:51:57.325Z,61.10
2023-01-27T15:54:33.731Z,61.10
2023-01-27T15:57:35.528Z,60.90
2023-01-27T16:00:08.728Z,60.80
2023-01-27T16:02:44.927Z,60.90
2023-01-27T16:05:44.148Z,60.90
2023-01-27T16:08:14.398Z,60.80
2023-01-27T16:10:42.490Z,60.70
2023-01-27T16:13:24.938Z,60.70
2023-01-27T16:16:18.925Z,60.60
2023-01-27T16:19:10.666Z,60.60
2023-01-27T16:21:49.546Z,60.60
2023-01-27T16:24:19.361Z,60.50
2023-01-27T16:27:04.073Z,60.50
2023-01-27T16:29:51.247Z,60.60
2023-01-27T16:32:21.196Z,60.60
2023-01-27T16:34:55.845Z,60.30
2023-01-27T16:37:26.468Z,60.40
2023-01-27T16:40:13.900Z,60.50
2023-01-27T16:42:57.099Z,60.70
2023-01-27T16:45:28.169Z,61.30
2023-01-27T16:48:01.123Z,62.10
2023-01-27T16:50:36.774Z,63.00
2023-01-27T16:53:06.873Z,63.40
2023-01-27T16:55:36.448Z,63.90
2023-01-27T16:58:03.705Z,64.10
2023-01-27T17:00:35.919Z,64.30
2023-01-27T17:03:15.082Z,64.40
2023-01-27T17:05:49.884Z,64.50
2023-01-27T17:08:26.564Z,64.50
2023-01-27T17:11:04.139Z,64.60
2023-01-27T17:14:21.232Z,64.60
2023-01-27T17:17:01.858Z,64.60
2023-01-27T17:19:32.233Z,64.60
2023-01-27T17:22:01.683Z,64.50
2023-01-27T17:24:49.905Z,64.40
2023-01-27T17:27:41.111Z,64.30
2023-01-27T17:30:33.583Z,64.40
2023-01-27T17:33:02.536Z,64.30
2023-01-27T17:35:40.485Z,64.30
2023-01-27T17:38:15.275Z,64.00
2023-01-27T17:40:47.769Z,63.60
2023-01-27T17:43:37.762Z,63.70
2023-01-27T17:46:21.522Z,63.50
2023-01-27T17:48:55.708Z,63.50
2023-01-27T17:51:29.088Z,63.40
2023-01-27T17:53:59.479Z,63.30
2023-01-27T17:56:32.797Z,63.10
2023-01-27T17:59:08.295Z,62.90
2023-01-27T18:01:36.352Z,62.60
2023-01-27T18:04:06.115Z,62.70
2023-01-27T18:06:33.403Z,62.80
2023-01-27T18:09:15.650Z,62.60
2023-01-27T18:11:53.308Z,62.50
2023-01-27T18:14:21.382Z,62.30
2023-01-27T18:17:08.284Z,62.20
2023-01-27T18:19:35.345Z,62.30
2023-01-27T18:22:28.541Z,62.30
2023-01-27T18:24:57.910Z,62.20
2023-01-27T18:27:31.556Z,62.10
2023-01-27T18:30:14.197Z,62.10
2023-01-27T18:32:43.669Z,62.10
2023-01-27T18:35:27.051Z,62.10
2023-01-27T18:38:03.452Z,62.10
2023-01-27T18:40:35.440Z,62.00
2023-01-27T18:43:08.781Z,62.00
2023-01-27T18:45:35.587Z,61.90
2023-01-27T18:48:03.857Z,62.00
2023-01-27T18:50:31.246Z,62.00
2023-01-27T18:52:58.612Z,62.00
2023-01-27T18:55:27.955Z,62.00
2023-01-27T18:57:59.294Z,62.00
2023-01-27T19:00:39.549Z,61.80
2023-01-27T19:03:14.571Z,61.80
2023-01-27T19:05:41.904Z,61.70
2023-01-27T19:08:15.575Z,61.70
2023-01-27T19:10:43.130Z,61.60
2023-01-27T19:13:11.660Z,61.20
2023-01-27T19:15:41.516Z,61.10
2023-01-27T19:18:26.026Z,61.00
2023-01-27T19:20:56.485Z,60.90
2023-01-27T19:23:23.349Z,60.90
2023-01-27T19:25:55.433Z,60.90
2023-01-27T19:28:37.951Z,60.90
2023-01-27T19:31:06.695Z,60.90
2023-01-27T19:33:39.014Z,60.80
2023-01-27T19:36:11.721Z,60.80
2023-01-27T19:38:38.632Z,60.60
2023-01-27T19:41:05.607Z,60.70
2023-01-27T19:43:32.426Z,60.80
2023-01-27T19:46:01.408Z,60.70
2023-01-27T19:48:30.430Z,60.60
2023-01-27T19:50:57.244Z,60.60
2023-01-27T19:53:26.609Z,60.60
2023-01-27T19:55:58.159Z,60.50
2023-01-27T19:58:27.811Z,60.50
2023-01-27T20:00:55.820Z,60.50
2023-01-27T20:03:24.096Z,60.40
2023-01-27T20:05:51.026Z,60.40
2023-01-27T20:08:20.489Z,60.40
2023-01-27T20:10:47.379Z,60.30
2023-01-27T20:13:19.706Z,60.80
2023-01-27T20:15:52.359Z,60.10
2023-01-27T20:18:20.379Z,60.00
2023-01-27T20:20:48.938Z,60.20
2023-01-27T20:23:20.107Z,60.70
2023-01-27T20:25:47.149Z,60.00
2023-01-27T20:28:13.988Z,60.00
2023-01-27T20:30:42.100Z,60.00
2023-01-27T20:33:12.498Z,59.80
2023-01-27T20:35:39.305Z,59.80
2023-01-27T20:38:08.603Z,59.90
2023-01-27T20:40:35.872Z,60.00
2023-01-27T20:43:02.650Z,59.80
2023-01-27T20:45:29.480Z,59.90
2023-01-27T20:47:56.346Z,59.80
2023-01-27T20:50:25.868Z,59.80
2023-01-27T20:52:54.426Z,59.70
2023-01-27T20:55:21.651Z,59.70
2023-01-27T20:57:49.104Z,59.80
2023-01-27T21:00:20.371Z,59.70
2023-01-27T21:02:48.120Z,59.70
2023-01-27T21:05:15.562Z,59.60
2023-01-27T21:07:45.395Z,59.60
2023-01-27T21:10:13.217Z,59.70
2023-01-27T21:12:40.593Z,59.70
2023-01-27T21:15:09.818Z,59.70
2023-01-27T21:17:37.704Z,59.60
2023-01-27T21:20:05.199Z,59.50
2023-01-27T21:22:32.800Z,59.60
2023-01-27T21:24:59.552Z,59.50
2023-01-27T21:27:26.332Z,59.60
2023-01-27T21:29:53.131Z,59.50
2023-01-27T21:32:22.520Z,59.50
2023-01-27T21:34:49.819Z,59.40
2023-01-27T21:37:16.614Z,59.60
2023-01-27T21:39:43.417Z,59.40
2023-01-27T21:42:13.938Z,59.50
2023-01-27T21:44:59.192Z,59.40
2023-01-27T21:47:26.024Z,59.40
2023-01-27T21:50:00.988Z,59.40
2023-01-27T21:52:39.545Z,59.50
2023-01-27T21:55:09.199Z,59.50
2023-01-27T21:57:36.213Z,59.60
2023-01-27T22:00:06.268Z,59.40
2023-01-27T22:02:33.619Z,59.60
2023-01-27T22:05:00.428Z,59.50
2023-01-27T22:07:34.117Z,59.50
2023-01-27T22:10:01.496Z,59.30
2023-01-27T22:12:29.139Z,59.40
2023-01-27T22:14:55.941Z,59.20
2023-01-27T22:17:25.172Z,59.30
2023-01-27T22:19:51.976Z,59.60
2023-01-27T22:22:18.821Z,59.50
2023-01-27T22:24:48.075Z,59.40
2023-01-27T22:27:14.914Z,59.40
2023-01-27T22:29:41.749Z,59.30
2023-01-27T22:32:08.986Z,59.30
2023-01-27T22:34:35.787Z,59.40
2023-01-27T22:37:02.700Z,59.30
2023-01-27T22:39:29.539Z,59.40
2023-01-27T22:41:56.876Z,59.30
2023-01-27T22:44:25.756Z,59.40
2023-01-27T22:46:52.796Z,59.30
2023-01-27T22:49:19.801Z,59.30
2023-01-27T22:51:48.873Z,59.30
2023-01-27T22:54:15.801Z,59.40
2023-01-27T22:56:43.236Z,59.20
2023-01-27T22:59:13.062Z,59.20
2023-01-27T23:01:40.678Z,59.20
2023-01-27T23:04:07.558Z,59.10
2023-01-27T23:06:34.312Z,59.10
2023-01-27T23:09:01.120Z,59.10
2023-01-27T23:11:30.408Z,59.20
2023-01-27T23:13:57.267Z,59.10
2023-01-27T23:16:26.249Z,59.20
2023-01-27T23:18:53.023Z,59.20
2023-01-27T23:21:21.920Z,59.30
2023-01-27T23:23:51.352Z,59.20
2023-01-27T23:26:18.275Z,59.10
2023-01-27T23:28:47.573Z,59.00
2023-01-27T23:31:17.048Z,59.10
2023-01-27T23:33:44.438Z,59.00
2023-01-27T23:36:12.639Z,59.00
2023-01-27T23:38:39.272Z,59.00
2023-01-27T23:41:18.489Z,59.10
2023-01-27T23:43:51.161Z,59.00
2023-01-27T23:46:18.448Z,59.00
2023-01-27T23:48:53.726Z,59.10
2023-01-27T23:51:21.819Z,59.00
2023-01-27T23:53:49.078Z,59.00
2023-01-27T23:56:19.046Z,59.00
2023-01-27T23:58:49.425Z,59.00
